Time;durP1;ratioP1;P1;durP2;ratioP2;P2;SDS_P1;SDS_P2;PMS_P1;PMS_P2;Temp;Humidity;BMP_temperature;BMP_pressure;BME280_temperature;BME280_humidity;BME280_pressure;Samples;Min_cycle;Max_cycle;Signal;HPM_P1;HPM_P2
2022/08/13 00:00:38;;;;;;;7.55;2.40;;;;;;;28.20;24.35;100683.28;5073817;28;20057;-64
2022/08/13 00:03:18;;;;;;;4.60;2.05;;;;;;;28.19;23.88;100680.88;5065802;28;20052;-65
2022/08/13 00:06:08;;;;;;;5.53;2.28;;;;;;;28.23;23.97;100678.75;5031350;28;20061;-64
2022/08/13 00:08:55;;;;;;;5.00;2.30;;;;;;;28.30;24.26;100676.59;5032393;28;20052;-65
2022/08/13 00:14:34;;;;;;;9.77;2.50;;;;;;;28.19;23.86;100683.72;5070759;28;20059;-64
2022/08/13 00:17:12;;;;;;;5.43;1.95;;;;;;;28.06;24.17;100691.22;5053557;28;20057;-65
2022/08/13 00:19:43;;;;;;;6.63;1.85;;;;;;;27.84;24.63;100682.31;5069006;28;20049;-65
2022/08/13 00:22:22;;;;;;;6.75;2.08;;;;;;;27.77;24.54;100676.75;5053130;28;20052;-64
2022/08/13 00:24:58;;;;;;;10.02;2.03;;;;;;;27.90;24.13;100683.41;5033489;28;20049;-65
2022/08/13 00:27:29;;;;;;;8.70;2.10;;;;;;;27.78;24.44;100684.00;5048238;28;20409;-64
2022/08/13 00:30:17;;;;;;;4.18;2.00;;;;;;;27.94;23.81;100687.00;5040277;28;20048;-65
2022/08/13 00:32:54;;;;;;;5.57;1.60;;;;;;;27.66;24.77;100685.44;5076177;28;20048;-65
2022/08/13 00:35:23;;;;;;;4.68;1.92;;;;;;;27.59;24.80;100684.75;5076884;28;20052;-65
2022/08/13 00:38:08;;;;;;;3.63;1.83;;;;;;;27.45;24.93;100685.78;5076207;28;20381;-65
2022/08/13 00:40:35;;;;;;;6.03;1.80;;;;;;;27.62;24.51;100689.53;5077445;28;20040;-65
2022/08/13 00:43:03;;;;;;;4.63;1.88;;;;;;;27.72;24.54;100688.59;5076946;28;20067;-65
2022/08/13 00:45:32;;;;;;;8.40;2.33;;;;;;;27.71;24.63;100684.94;5059573;28;20131;-65
2022/08/13 00:50:51;;;;;;;10.13;1.73;;;;;;;27.70;24.81;100685.38;5057002;28;20041;-64
2022/08/13 00:53:20;;;;;;;3.83;2.00;;;;;;;27.72;24.54;100691.41;5056989;28;20045;-65
2022/08/13 00:55:53;;;;;;;9.00;2.20;;;;;;;27.67;24.75;100681.38;5055482;28;20288;-65
2022/08/13 00:58:22;;;;;;;7.07;1.85;;;;;;;27.65;24.77;100686.66;5055435;28;20060;-66
2022/08/13 01:00:56;;;;;;;8.88;2.25;;;;;;;27.80;24.93;100689.25;5090217;28;20052;-65
2022/08/13 01:03:26;;;;;;;6.60;1.80;;;;;;;27.77;24.57;100693.75;5075261;28;20052;-65
2022/08/13 01:06:13;;;;;;;9.82;1.95;;;;;;;27.75;24.94;100687.72;5074792;28;20059;-65
2022/08/13 01:08:48;;;;;;;7.60;1.90;;;;;;;27.88;24.93;100691.50;5072656;28;20071;-65
2022/08/13 01:11:22;;;;;;;4.68;1.98;;;;;;;27.78;24.64;100695.34;5039904;28;20064;-65
2022/08/13 01:13:51;;;;;;;6.00;2.10;;;;;;;27.77;24.64;100692.94;5053542;28;20052;-66
2022/08/13 01:16:20;;;;;;;5.60;2.03;;;;;;;27.66;24.77;100695.94;5073809;28;20512;-64
2022/08/13 01:18:51;;;;;;;7.18;2.17;;;;;;;27.69;24.96;100687.41;5076686;28;20048;-64
2022/08/13 01:21:22;;;;;;;6.65;2.13;;;;;;;27.64;25.16;100699.22;5076529;28;20052;-64
2022/08/13 01:24:10;;;;;;;3.25;1.70;;;;;;;27.54;25.49;100685.25;5061991;28;20504;-64
2022/08/13 01:26:40;;;;;;;7.80;2.30;;;;;;;27.43;25.80;100693.09;5055946;28;20071;-65
2022/08/13 01:29:15;;;;;;;5.22;1.92;;;;;;;27.55;25.10;100687.63;5054504;28;20044;-65
2022/08/13 01:31:44;;;;;;;6.95;1.92;;;;;;;27.51;25.07;100688.94;5055914;28;20488;-63
2022/08/13 01:34:13;;;;;;;4.57;2.17;;;;;;;27.40;25.19;100686.28;5082291;28;20602;-63
2022/08/13 01:36:54;;;;;;;5.45;2.00;;;;;;;27.26;25.94;100682.81;5066372;28;20452;-64
2022/08/13 01:39:27;;;;;;;7.60;2.17;;;;;;;27.27;25.42;100687.25;5037753;28;20056;-64
2022/08/13 01:42:03;;;;;;;11.33;2.03;;;;;;;27.07;25.79;100697.66;5056060;28;20052;-64
2022/08/13 01:44:31;;;;;;;8.85;2.25;;;;;;;27.29;25.68;100684.78;5071428;28;20409;-64
2022/08/13 01:53:08;;;;;;;7.20;2.45;;;;;;;27.03;26.04;100694.88;5058350;28;20464;-64
2022/08/13 01:55:42;;;;;;;8.23;2.08;;;;;;;27.16;25.69;100695.91;5076040;28;20056;-64
2022/08/13 01:58:29;;;;;;;11.73;1.98;;;;;;;27.13;26.09;100691.09;5090592;28;20056;-64
2022/08/13 02:01:02;;;;;;;5.57;1.98;;;;;;;27.09;26.22;100690.38;5091250;28;20512;-64
2022/08/13 02:03:37;;;;;;;7.95;2.00;;;;;;;26.97;26.05;100684.47;5075506;28;20056;-64
2022/08/13 02:06:08;;;;;;;4.75;2.15;;;;;;;27.15;26.33;100688.66;5073445;28;20052;-64
2022/08/13 02:08:55;;;;;;;7.90;1.95;;;;;;;27.13;26.07;100688.28;5075232;28;20067;-64
2022/08/13 02:11:24;;;;;;;6.75;2.00;;;;;;;27.01;26.37;100694.50;5075712;28;20429;-64
2022/08/13 02:13:54;;;;;;;;;;;;;;;26.92;26.69;100694.22;5075966;28;20056;-64
2022/08/13 02:16:31;;;;;;;7.38;2.15;;;;;;;27.02;26.68;100693.28;5054943;28;19921;-64
2022/08/13 02:19:00;;;;;;;6.88;2.10;;;;;;;27.12;26.48;100695.16;5068981;28;20044;-64
2022/08/13 02:21:32;;;;;;;5.82;1.90;;;;;;;26.59;26.85;100706.34;5066910;28;20052;-64
2022/08/13 02:24:13;;;;;;;7.03;2.00;;;;;;;26.45;27.10;100701.66;5060149;28;20056;-63
2022/08/13 02:26:47;;;;;;;4.38;1.95;;;;;;;26.73;27.34;100706.19;5053941;28;20075;-65
2022/08/13 02:29:22;;;;;;;5.78;2.20;;;;;;;26.83;26.83;100702.44;5053745;28;20052;-64
2022/08/13 02:31:52;;;;;;;5.80;2.53;;;;;;;26.85;27.46;100702.78;5059619;28;20044;-63
2022/08/13 02:34:39;;;;;;;9.32;2.20;;;;;;;26.88;27.38;100701.97;5074760;28;20063;-64
2022/08/13 02:37:08;;;;;;;6.80;2.10;;;;;;;26.92;27.45;100697.06;5074741;28;20044;-64
2022/08/13 02:39:55;;;;;;;7.72;2.70;;;;;;;26.79;27.68;100692.41;5073704;28;20063;-64
2022/08/13 02:42:24;;;;;;;9.30;2.63;;;;;;;26.59;28.17;100704.31;5055491;28;20519;-64
2022/08/13 02:44:51;;;;;;;6.18;2.40;;;;;;;26.50;28.40;100708.88;5055186;28;20488;-64
2022/08/13 02:47:20;;;;;;;8.50;2.30;;;;;;;26.50;28.86;100706.84;5054529;28;20079;-65
2022/08/13 02:50:08;;;;;;;4.40;2.33;;;;;;;26.44;29.16;100699.25;5054684;28;20040;-64
2022/08/13 02:52:39;;;;;;;4.03;2.17;;;;;;;26.47;29.35;100704.06;5054027;28;20057;-65
2022/08/13 02:55:28;;;;;;;5.90;2.53;;;;;;;26.43;29.46;100695.63;5068621;28;20053;-65
2022/08/13 02:58:01;;;;;;;6.22;2.47;;;;;;;26.40;29.89;100701.31;5047575;28;20068;-65
2022/08/13 03:00:30;;;;;;;7.75;2.30;;;;;;;26.34;29.62;100700.97;5066945;28;20041;-64
2022/08/13 03:03:02;;;;;;;4.78;2.33;;;;;;;26.39;30.10;100703.38;5061241;28;20052;-64
2022/08/13 03:05:31;;;;;;;4.45;2.40;;;;;;;26.11;30.43;100700.03;5074778;28;20048;-65
2022/08/13 03:08:19;;;;;;;7.25;2.55;;;;;;;26.20;30.55;100706.81;5074333;28;20057;-65
2022/08/13 03:11:06;;;;;;;6.35;2.67;;;;;;;25.81;31.04;100703.50;5054002;28;20045;-64
2022/08/13 03:13:36;;;;;;;6.05;2.60;;;;;;;26.06;31.04;100698.47;5054286;28;20610;-64
2022/08/13 03:16:16;;;;;;;3.63;2.30;;;;;;;26.12;31.02;100693.97;5052571;28;20044;-64
2022/08/13 03:18:46;;;;;;;5.28;2.53;;;;;;;26.03;31.38;100699.28;5066611;28;20052;-63
2022/08/13 03:21:43;;;;;;;6.18;2.55;;;;;;;26.07;31.14;100691.59;5074170;28;20063;-63
2022/08/13 03:24:14;;;;;;;7.15;2.58;;;;;;;25.75;31.32;100690.28;5059150;28;20056;-63
2022/08/13 03:27:00;;;;;;;9.15;2.90;;;;;;;25.97;30.30;100691.69;5054383;28;20045;-64
2022/08/13 03:29:31;;;;;;;8.15;2.47;;;;;;;25.96;30.08;100690.88;5063627;28;20510;-63
2022/08/13 03:32:19;;;;;;;5.38;2.40;;;;;;;26.04;29.89;100689.63;5053365;28;20488;-64
2022/08/13 03:35:15;;;;;;;7.57;2.50;;;;;;;26.03;29.28;100690.03;5069791;28;20472;-64
2022/08/13 03:38:04;;;;;;;3.97;2.00;;;;;;;26.00;29.36;100690.81;5053903;28;20091;-64
2022/08/13 03:43:20;;;;;;;6.97;2.05;;;;;;;25.83;29.25;100692.63;5054289;28;20053;-64
2022/08/13 03:45:50;;;;;;;4.82;2.22;;;;;;;26.07;28.59;100693.59;5068883;28;20049;-64
2022/08/13 03:48:17;;;;;;;12.27;2.15;;;;;;;26.18;28.15;100694.31;5053889;28;20064;-66
2022/08/13 03:50:46;;;;;;;5.78;2.10;;;;;;;26.16;28.63;100694.72;5053842;28;20629;-65
2022/08/13 03:53:22;;;;;;;7.05;2.10;;;;;;;25.98;28.50;100687.66;5053735;28;20083;-64
2022/08/13 03:56:09;;;;;;;10.85;2.55;;;;;;;26.11;28.53;100703.66;5054041;28;20048;-64
2022/08/13 03:58:40;;;;;;;4.75;1.90;;;;;;;26.08;28.78;100698.06;5053122;28;20080;-64
2022/08/13 04:01:07;;;;;;;8.27;2.30;;;;;;;25.84;29.50;100702.66;5067216;28;20063;-64
2022/08/13 04:03:41;;;;;;;6.85;2.20;;;;;;;25.66;29.52;100699.22;5075750;28;20151;-64
2022/08/13 04:06:15;;;;;;;9.73;2.42;;;;;;;25.69;30.47;100698.38;5078474;28;20044;-64
2022/08/13 04:08:44;;;;;;;4.28;2.30;;;;;;;25.63;30.07;100697.22;5076491;28;20061;-64
2022/08/13 04:11:17;;;;;;;6.38;2.58;;;;;;;25.81;29.27;100694.25;5078156;28;20063;-65
2022/08/13 04:13:48;;;;;;;5.60;2.00;;;;;;;25.77;29.62;100690.66;5077852;28;20361;-65
2022/08/13 04:16:35;;;;;;;4.90;2.35;;;;;;;25.73;29.45;100693.53;5077942;28;20053;-65
2022/08/13 04:19:07;;;;;;;5.75;2.20;;;;;;;25.63;29.62;100694.38;5077862;28;20067;-65
2022/08/13 04:21:44;;;;;;;5.35;2.03;;;;;;;25.66;29.75;100693.59;5078137;28;20056;-64
2022/08/13 04:24:12;;;;;;;5.55;2.20;;;;;;;25.74;29.55;100694.31;5062625;28;20057;-64
2022/08/13 04:26:43;;;;;;;12.38;2.55;;;;;;;25.63;29.31;100693.63;5057794;28;20411;-64
2022/08/13 04:29:14;;;;;;;5.05;2.10;;;;;;;25.52;29.33;100702.16;5055304;28;20053;-64
2022/08/13 04:31:45;;;;;;;10.27;2.33;;;;;;;25.68;29.61;100695.97;5057320;28;20057;-65
2022/08/13 04:34:20;;;;;;;5.57;2.28;;;;;;;25.63;29.58;100694.38;5057353;28;20064;-64
2022/08/13 04:37:09;;;;;;;5.03;2.00;;;;;;;25.54;29.37;100694.09;5057386;28;20045;-64
2022/08/13 04:39:53;;;;;;;5.13;1.80;;;;;;;25.11;30.08;100693.53;5056378;28;20500;-64
2022/08/13 04:42:53;;;;;;;6.18;2.17;;;;;;;25.17;29.74;100685.47;5041560;28;20049;-65
2022/08/13 04:45:22;;;;;;;7.60;2.20;;;;;;;25.35;29.38;100686.94;5056724;28;20057;-65
2022/08/13 04:47:52;;;;;;;4.85;2.00;;;;;;;25.34;29.74;100695.81;5072550;28;20424;-65
2022/08/13 04:50:21;;;;;;;5.40;1.77;;;;;;;25.44;29.47;100694.94;5056082;28;20445;-64
2022/08/13 04:52:56;;;;;;;10.10;2.15;;;;;;;25.37;29.65;100693.00;5055788;28;20049;-64
2022/08/13 04:55:26;;;;;;;8.65;2.10;;;;;;;25.60;29.64;100698.06;5057189;28;20056;-65
2022/08/13 04:58:15;;;;;;;7.65;2.22;;;;;;;25.66;29.76;100687.94;5048418;28;20041;-64
2022/08/13 05:00:44;;;;;;;4.27;2.10;;;;;;;25.58;29.56;100697.66;5072772;28;20061;-64
2022/08/13 05:03:21;;;;;;;7.47;2.25;;;;;;;25.46;29.36;100693.34;5071928;28;20049;-64
2022/08/13 05:05:52;;;;;;;9.75;3.00;;;;;;;25.56;29.89;100683.97;5057734;28;20047;-64
2022/08/13 05:08:20;;;;;;;9.30;2.55;;;;;;;25.45;29.91;100682.47;5039294;28;20056;-64
2022/08/13 05:10:49;;;;;;;23.20;6.05;;;;;;;25.38;29.57;100685.34;5055300;28;20068;-64
2022/08/13 05:13:24;;;;;;;5.75;1.90;;;;;;;25.37;29.66;100693.00;5077872;28;20504;-64
2022/08/13 05:15:54;;;;;;;5.18;2.05;;;;;;;25.22;30.29;100697.09;5092191;28;20059;-64
2022/08/13 05:18:29;;;;;;;3.85;1.90;;;;;;;25.39;29.91;100687.75;5092101;28;20427;-64
2022/08/13 05:21:01;;;;;;;3.35;1.85;;;;;;;25.41;29.64;100704.25;5075577;28;20048;-64
2022/08/13 05:23:34;;;;;;;3.78;2.00;;;;;;;25.58;30.08;100703.31;5062121;28;20067;-64
2022/08/13 05:26:23;;;;;;;6.85;2.13;;;;;;;25.33;30.08;100703.47;5057090;28;20049;-67
2022/08/13 05:29:10;;;;;;;6.03;2.10;;;;;;;25.26;30.13;100709.16;5055061;28;20044;-64
2022/08/13 05:31:36;;;;;;;6.80;1.90;;;;;;;25.22;29.96;100710.41;5056598;28;20490;-64
2022/08/13 05:34:25;;;;;;;4.28;2.00;;;;;;;25.13;29.92;100702.41;5069332;28;20048;-64
2022/08/13 05:36:54;;;;;;;;;;;;;;;24.97;30.31;100706.91;5055699;28;20056;-64
2022/08/13 05:39:42;;;;;;;6.65;2.08;;;;;;;25.13;30.35;100701.59;5056493;28;19921;-64
2022/08/13 05:42:18;;;;;;;9.30;1.95;;;;;;;25.24;30.15;100703.16;5054279;28;20088;-65
2022/08/13 05:44:55;;;;;;;5.00;2.00;;;;;;;25.21;30.50;100708.81;5070336;28;20087;-65
2022/08/13 05:47:24;;;;;;;3.78;1.98;;;;;;;25.21;30.52;100703.16;5052808;28;20055;-65
2022/08/13 05:49:53;;;;;;;6.28;2.05;;;;;;;25.02;30.51;100709.31;5039306;28;20052;-65
2022/08/13 05:52:30;;;;;;;7.32;1.90;;;;;;;24.96;30.60;100710.94;5054261;28;20046;-65
2022/08/13 05:55:12;;;;;;;7.72;2.13;;;;;;;25.06;30.73;100710.91;5053195;28;20052;-65
2022/08/13 05:57:59;;;;;;;4.00;1.90;;;;;;;24.96;30.69;100706.13;5058385;28;20037;-65
2022/08/13 06:03:25;;;;;;;8.35;1.80;;;;;;;24.80;31.07;100705.00;5055765;28;20060;-64
2022/08/13 06:06:15;;;;;;;11.02;1.60;;;;;;;24.69;30.91;100712.69;5055917;28;20053;-65
2022/08/13 06:08:50;;;;;;;7.18;1.90;;;;;;;24.68;31.22;100714.69;5053733;28;20060;-65
2022/08/13 06:11:18;;;;;;;8.50;1.85;;;;;;;24.73;31.23;100711.47;5057990;28;20048;-65
2022/08/13 06:14:05;;;;;;;4.78;1.83;;;;;;;24.87;30.88;100714.22;5073689;28;20565;-64
2022/08/13 06:16:34;;;;;;;5.10;2.13;;;;;;;25.02;30.99;100720.59;5075021;28;20044;-65
2022/08/13 06:19:26;;;;;;;7.70;2.00;;;;;;;24.82;31.05;100717.47;5075520;28;20063;-65
2022/08/13 06:22:04;;;;;;;4.93;2.33;;;;;;;24.84;31.13;100712.22;5074572;28;20056;-65
2022/08/13 06:24:37;;;;;;;7.18;1.80;;;;;;;24.82;31.28;100719.47;5055210;28;20053;-65
2022/08/13 06:27:27;;;;;;;7.25;1.98;;;;;;;24.64;31.53;100713.06;5052405;28;20053;-65
2022/08/13 06:30:18;;;;;;;8.27;2.15;;;;;;;24.80;31.46;100721.91;5054034;28;20049;-65
2022/08/13 06:33:02;;;;;;;7.13;1.83;;;;;;;24.79;31.64;100712.66;5053608;28;20060;-65
2022/08/13 06:35:54;;;;;;;3.28;2.05;;;;;;;24.82;31.49;100719.47;5055294;28;20064;-65
2022/08/13 06:38:30;;;;;;;10.77;1.92;;;;;;;25.06;31.56;100721.38;5054929;28;20060;-65
2022/08/13 06:41:03;;;;;;;8.68;2.45;;;;;;;25.21;30.94;100711.63;5054659;28;20404;-65
2022/08/13 06:43:39;;;;;;;4.40;2.30;;;;;;;25.30;30.83;100720.41;5064196;28;20053;-66
2022/08/13 06:46:16;;;;;;;12.18;7.45;;;;;;;25.40;30.85;100714.72;5074808;28;20048;-65
2022/08/13 06:48:57;;;;;;;10.18;3.58;;;;;;;25.58;30.70;100721.03;5075098;28;20060;-65
2022/08/13 06:51:31;;;;;;;7.63;3.30;;;;;;;25.56;30.69;100714.19;5057699;28;20095;-65
2022/08/13 06:54:08;;;;;;;6.75;2.10;;;;;;;25.94;30.35;100715.09;5070357;28;20064;-65
2022/08/13 06:56:56;;;;;;;8.82;2.10;;;;;;;25.62;30.62;100718.19;5053869;28;20049;-65
2022/08/13 06:59:44;;;;;;;5.85;1.70;;;;;;;25.53;31.02;100717.84;5054829;28;20500;-65
2022/08/13 07:02:34;;;;;;;7.18;2.58;;;;;;;25.65;30.51;100719.41;5066430;28;20048;-64
2022/08/13 07:05:04;;;;;;;5.30;2.00;;;;;;;25.48;30.88;100726.75;5074113;28;20057;-64
2022/08/13 07:07:45;;;;;;;4.88;2.03;;;;;;;25.66;30.66;100723.81;5074281;28;20503;-64
2022/08/13 07:10:16;;;;;;;4.30;1.65;;;;;;;25.71;30.63;100729.81;5074707;28;20407;-64
2022/08/13 07:12:43;;;;;;;6.53;2.20;;;;;;;25.73;30.88;100726.56;5073608;28;20056;-64
2022/08/13 07:15:14;;;;;;;8.38;2.08;;;;;;;25.85;30.60;100723.25;5074478;28;20049;-66
2022/08/13 07:18:03;;;;;;;5.73;2.80;;;;;;;25.69;30.87;100725.78;5074246;28;20049;-64
2022/08/13 07:20:31;;;;;;;13.20;3.42;;;;;;;25.61;30.89;100722.25;5062606;28;20041;-64
2022/08/13 07:22:59;;;;;;;7.43;2.35;;;;;;;25.63;30.81;100722.59;5052714;28;20056;-65
2022/08/13 07:25:47;;;;;;;8.25;2.35;;;;;;;25.54;30.92;100725.91;5053163;28;20060;-65
2022/08/13 07:28:29;;;;;;;5.47;2.50;;;;;;;25.67;30.74;100728.22;5033069;28;20048;-65
2022/08/13 07:31:28;;;;;;;4.18;1.95;;;;;;;25.68;30.80;100727.84;5034482;28;20060;-65
2022/08/13 07:34:15;;;;;;;4.97;2.28;;;;;;;25.90;30.44;100737.72;5047478;28;20064;-65
2022/08/13 07:36:43;;;;;;;3.97;1.85;;;;;;;25.65;30.83;100731.47;5089623;28;20476;-65
2022/08/13 07:39:26;;;;;;;6.00;2.25;;;;;;;25.72;31.16;100739.88;5048102;28;20119;-65
2022/08/13 07:41:54;;;;;;;7.68;2.08;;;;;;;26.12;30.73;100738.31;5052598;28;20048;-65
2022/08/13 07:44:31;;;;;;;8.65;3.92;;;;;;;26.25;30.42;100737.41;5053953;28;20049;-65
2022/08/13 07:47:20;;;;;;;6.70;2.30;;;;;;;26.07;30.64;100735.97;5064239;28;20057;-65
2022/08/13 07:49:56;;;;;;;3.70;1.65;;;;;;;26.01;32.05;100738.44;5065677;28;20053;-66
2022/08/13 07:52:27;;;;;;;5.70;1.70;;;;;;;26.31;30.85;100735.72;5050979;28;20044;-65
2022/08/13 07:54:55;;;;;;;6.72;2.25;;;;;;;26.53;30.11;100744.78;5050153;28;20049;-67
2022/08/13 07:57:25;;;;;;;6.22;2.35;;;;;;;26.56;29.58;100741.09;5024270;28;20060;-65
2022/08/13 08:00:09;;;;;;;7.30;1.80;;;;;;;26.86;29.60;100731.88;5066486;28;20089;-65
2022/08/13 08:02:44;;;;;;;;;;;;;;;26.75;29.10;100739.69;5068226;28;20041;-65
2022/08/13 08:05:14;;;;;;;5.90;1.85;;;;;;;26.40;29.81;100743.69;5061971;28;20384;-65
2022/08/13 08:07:50;;;;;;;10.63;2.67;;;;;;;26.64;29.67;100734.94;5072776;28;20056;-65
2022/08/13 08:10:37;;;;;;;4.80;1.90;;;;;;;26.90;29.33;100741.13;5059251;28;20045;-65
2022/08/13 08:13:09;;;;;;;4.10;2.03;;;;;;;27.26;28.57;100731.72;5032704;28;20061;-65
2022/08/13 08:15:39;;;;;;;6.10;1.90;;;;;;;26.98;29.21;100729.28;5043314;28;20057;-65
2022/08/13 08:18:27;;;;;;;9.68;1.90;;;;;;;27.14;29.12;100732.31;5059702;28;20064;-66
2022/08/13 08:21:15;;;;;;;6.90;2.03;;;;;;;27.60;28.30;100734.44;5043353;28;20056;-65
2022/08/13 08:24:04;;;;;;;6.60;1.90;;;;;;;27.41;28.50;100737.97;5051652;28;20048;-65
2022/08/13 08:26:52;;;;;;;4.55;2.08;;;;;;;27.43;28.32;100741.19;5050413;28;20049;-65
2022/08/13 08:29:21;;;;;;;6.93;2.38;;;;;;;27.11;28.36;100738.78;5049503;28;20053;-65
2022/08/13 08:31:50;;;;;;;6.88;2.85;;;;;;;26.89;28.77;100747.97;5049619;28;20595;-64
2022/08/13 08:34:28;;;;;;;8.57;1.80;;;;;;;26.95;29.10;100749.94;5050145;28;20053;-65
2022/08/13 08:36:56;;;;;;;9.13;1.83;;;;;;;27.22;28.41;100739.44;5062827;28;20064;-65
2022/08/13 08:44:55;;;;;;;3.67;1.45;;;;;;;27.91;27.63;100747.34;5052147;28;20057;-65
2022/08/13 08:47:31;;;;;;;2.80;1.30;;;;;;;27.78;27.27;100749.13;5055123;28;20053;-64
2022/08/13 08:50:22;;;;;;;3.65;1.50;;;;;;;27.39;28.48;100749.72;5052567;28;20520;-65
2022/08/13 08:56:04;;;;;;;8.73;1.70;;;;;;;28.25;26.91;100745.09;5054949;28;20053;-64
2022/08/13 08:58:36;;;;;;;5.82;2.03;;;;;;;28.25;27.43;100741.44;5050279;28;20411;-63
2022/08/13 09:01:13;;;;;;;5.97;1.70;;;;;;;28.20;27.07;100745.59;5059968;28;20436;-64
2022/08/13 09:03:42;;;;;;;5.50;1.63;;;;;;;28.07;27.48;100741.78;5049077;28;20041;-68
2022/08/13 09:06:27;;;;;;;3.78;1.40;;;;;;;28.09;27.18;100739.31;5051169;28;20067;-65
2022/08/13 09:09:15;;;;;;;3.67;1.45;;;;;;;27.83;27.58;100740.13;5050918;28;20428;-65
2022/08/13 09:11:47;;;;;;;5.65;1.45;;;;;;;27.66;27.41;100744.06;5069065;28;20448;-65
2022/08/13 09:14:26;;;;;;;8.63;1.67;;;;;;;27.83;27.19;100736.53;5063750;28;20045;-61
2022/08/13 09:16:55;;;;;;;2.85;1.52;;;;;;;27.74;27.25;100734.22;5062412;28;20071;-65
2022/08/13 09:19:24;;;;;;;8.30;1.27;;;;;;;27.79;27.15;100730.94;5054343;28;20079;-65
2022/08/13 09:22:14;;;;;;;5.22;1.40;;;;;;;27.98;27.45;100732.25;5046313;28;20303;-65
2022/08/13 09:24:48;;;;;;;5.85;1.58;;;;;;;28.33;26.65;100734.44;5031868;28;20056;-65
2022/08/13 09:27:17;;;;;;;5.35;1.30;;;;;;;28.52;26.23;100731.63;5042871;28;20492;-63
2022/08/13 09:29:48;;;;;;;4.03;2.00;;;;;;;28.62;26.16;100732.66;5035479;28;20056;-62
2022/08/13 09:32:24;;;;;;;4.47;1.55;;;;;;;28.71;25.80;100732.88;5028501;28;20532;-63
2022/08/13 09:35:00;;;;;;;3.28;1.20;;;;;;;28.57;26.04;100728.31;5045313;28;20068;-59
2022/08/13 09:37:30;;;;;;;7.22;1.50;;;;;;;28.57;25.74;100728.31;5053139;28;20508;-63
2022/08/13 09:40:20;;;;;;;3.83;1.08;;;;;;;28.64;26.04;100738.72;5049125;28;20060;-62
2022/08/13 09:43:12;;;;;;;2.58;1.27;;;;;;;28.57;25.81;100733.19;5050408;28;20056;-63
2022/08/13 09:46:01;;;;;;;7.22;1.30;;;;;;;28.56;26.07;100737.22;5052614;28;20041;-66
2022/08/13 09:48:29;;;;;;;6.95;1.30;;;;;;;28.63;25.96;100732.22;5054724;28;20048;-66
2022/08/13 09:51:04;;;;;;;6.63;1.60;;;;;;;28.65;25.92;100728.94;5049031;28;20053;-70
2022/08/13 09:53:46;;;;;;;2.47;1.35;;;;;;;28.82;25.78;100729.84;5052744;28;20041;-69
2022/08/13 09:56:17;;;;;;;3.53;1.23;;;;;;;29.02;25.59;100731.41;5036267;28;20063;-68
2022/08/13 09:58:51;;;;;;;6.38;1.20;;;;;;;29.12;25.54;100733.22;5045692;28;20311;-66
2022/08/13 10:01:22;;;;;;;5.20;1.55;;;;;;;29.20;24.96;100717.66;5044378;28;20415;-68
2022/08/13 10:04:11;;;;;;;2.67;1.20;;;;;;;29.28;24.76;100715.44;5053513;28;20045;-68
2022/08/13 10:06:39;;;;;;;4.32;1.35;;;;;;;29.14;24.79;100722.25;5052588;28;20044;-70
2022/08/13 10:09:28;;;;;;;7.75;1.20;;;;;;;29.20;24.54;100714.81;5053040;28;20117;-68
2022/08/13 10:12:01;;;;;;;3.45;1.40;;;;;;;29.30;24.51;100707.28;5047587;28;20049;-66
2022/08/13 10:14:49;;;;;;;5.78;1.50;;;;;;;29.25;24.11;100702.94;5058804;28;20049;-68
2022/08/13 10:17:25;;;;;;;4.47;1.23;;;;;;;29.16;23.86;100702.75;5052864;28;20052;-66
2022/08/13 10:20:24;;;;;;;4.38;1.20;;;;;;;29.30;23.95;100704.44;5055971;28;20056;-68
2022/08/13 10:22:53;;;;;;;2.15;0.90;;;;;;;29.45;22.75;100706.50;5052193;28;20048;-69
2022/08/13 10:25:23;;;;;;;5.20;1.42;;;;;;;29.41;23.39;100710.69;5053147;28;20049;-68
2022/08/13 10:28:27;;;;;;;5.05;1.10;;;;;;;29.58;22.87;100701.75;5042097;28;20056;-68
2022/08/13 10:31:09;;;;;;;4.72;1.40;;;;;;;29.61;22.97;100702.88;5055927;28;20411;-66
2022/08/13 10:33:59;;;;;;;4.93;1.30;;;;;;;29.51;23.20;100707.59;5049281;28;20053;-67
2022/08/13 10:36:27;;;;;;;7.38;1.50;;;;;;;29.85;22.99;100705.13;5044893;28;20061;-65
2022/08/13 10:39:04;;;;;;;7.80;1.25;;;;;;;29.82;23.34;100702.38;5052828;28;20056;-62
2022/08/13 10:41:39;;;;;;;5.70;1.50;;;;;;;29.82;23.28;100696.69;5051977;28;20064;-61
2022/08/13 10:44:27;;;;;;;3.97;1.50;;;;;;;30.04;22.86;100692.03;5054151;28;20049;-65
2022/08/13 10:46:59;;;;;;;7.95;1.48;;;;;;;30.12;22.58;100687.78;5059429;28;20056;-64
2022/08/13 10:49:29;;;;;;;6.45;1.40;;;;;;;29.96;22.63;100690.66;5054527;28;20080;-65
2022/08/13 10:51:59;;;;;;;2.00;1.20;;;;;;;30.00;22.41;100694.19;5053951;28;20429;-64
2022/08/13 10:54:32;;;;;;;4.45;1.10;;;;;;;30.16;22.41;100690.53;5050149;28;20041;-65
2022/08/13 10:57:07;;;;;;;4.15;1.10;;;;;;;29.95;22.83;100679.72;5050607;28;20049;-66
2022/08/13 10:59:43;;;;;;;4.22;1.23;;;;;;;30.13;22.42;100678.00;5053998;28;20057;-67
2022/08/13 11:02:11;;;;;;;2.78;1.05;;;;;;;30.26;22.41;100678.91;5053865;28;20049;-66
2022/08/13 11:04:47;;;;;;;8.35;1.42;;;;;;;30.11;22.48;100668.34;5052774;28;20088;-67
2022/08/13 11:07:20;;;;;;;4.65;1.50;;;;;;;30.37;22.42;100681.44;5064610;28;20059;-67
2022/08/13 11:09:49;;;;;;;6.40;1.30;;;;;;;30.39;22.25;100685.41;5050213;28;20976;-65
2022/08/13 11:12:18;;;;;;;4.65;1.45;;;;;;;30.39;21.94;100679.72;5048598;28;20053;-66
2022/08/13 11:14:50;;;;;;;3.50;1.10;;;;;;;30.32;22.08;100682.00;5041221;28;20124;-64
2022/08/13 11:17:19;;;;;;;3.90;1.00;;;;;;;30.40;22.00;100678.50;5058573;28;20495;-65
2022/08/13 11:20:13;;;;;;;4.55;1.42;;;;;;;30.35;21.87;100678.25;5051274;28;20048;-65
2022/08/13 11:22:49;;;;;;;5.45;2.15;;;;;;;30.60;21.86;100669.78;5045353;28;20743;-66
2022/08/13 11:25:17;;;;;;;9.70;2.47;;;;;;;30.58;21.92;100666.63;5063775;28;20057;-66
2022/08/13 11:28:11;;;;;;;5.70;1.63;;;;;;;30.50;21.90;100671.69;5052385;28;20065;-64
2022/08/13 11:30:43;;;;;;;6.32;1.70;;;;;;;30.58;21.70;100667.38;5066572;28;20059;-63
2022/08/13 11:33:10;;;;;;;4.20;1.40;;;;;;;30.71;21.28;100667.44;5033822;28;20063;-66
2022/08/13 11:35:43;;;;;;;3.00;1.63;;;;;;;30.85;20.84;100667.84;5063412;28;20045;-64
2022/08/13 11:38:17;;;;;;;6.43;1.38;;;;;;;30.81;20.83;100657.78;5032310;28;20049;-66
2022/08/13 11:40:52;;;;;;;8.47;1.50;;;;;;;30.92;20.94;100664.78;5052039;28;20041;-65
2022/08/13 11:43:27;;;;;;;5.03;1.02;;;;;;;30.88;20.58;100660.41;5035861;28;20060;-64
2022/08/13 11:46:15;;;;;;;2.72;1.45;;;;;;;31.33;20.54;100661.00;5051618;28;20055;-66
2022/08/13 11:48:47;;;;;;;7.60;2.10;;;;;;;31.25;20.47;100651.13;5053254;28;20064;-65
2022/08/13 11:51:35;;;;;;;2.58;1.05;;;;;;;31.01;20.90;100647.03;5054067;28;20056;-65
2022/08/13 11:54:23;;;;;;;2.05;1.00;;;;;;;31.01;20.96;100660.44;5052030;28;20048;-64
2022/08/13 11:57:03;;;;;;;5.38;0.90;;;;;;;30.91;20.79;100645.31;5053822;28;20052;-66
2022/08/13 11:59:35;;;;;;;4.25;1.20;;;;;;;31.11;20.68;100645.88;5064288;28;20049;-66
2022/08/13 12:02:12;;;;;;;6.65;1.10;;;;;;;31.17;20.64;100643.25;5049715;28;20048;-66
2022/08/13 12:04:43;;;;;;;6.10;1.38;;;;;;;30.95;20.89;100633.81;5053468;28;20052;-63
2022/08/13 12:07:19;;;;;;;4.75;1.10;;;;;;;30.81;20.29;100635.03;5063255;28;20052;-65
2022/08/13 12:09:46;;;;;;;6.55;1.35;;;;;;;30.74;20.62;100638.06;5051795;28;20052;-64
2022/08/13 12:12:19;;;;;;;4.22;0.93;;;;;;;30.84;20.49;100629.25;5047704;28;20072;-64
2022/08/13 12:14:50;;;;;;;4.85;1.38;;;;;;;30.79;19.95;100635.50;5057725;28;20495;-64
2022/08/13 12:17:18;;;;;;;4.00;0.87;;;;;;;30.61;20.17;100625.88;5053145;28;20076;-64
2022/08/13 12:20:08;;;;;;;12.73;1.02;;;;;;;30.82;20.15;100623.22;5051177;28;20303;-63
2022/08/13 12:22:47;;;;;;;4.90;1.17;;;;;;;30.73;20.08;100630.81;5052124;28;20057;-64
2022/08/13 12:25:22;;;;;;;6.45;1.17;;;;;;;30.63;20.05;100624.19;5054235;28;20053;-64
2022/08/13 12:28:18;;;;;;;4.72;1.13;;;;;;;30.86;20.36;100617.44;5055312;28;20049;-65
2022/08/13 12:30:56;;;;;;;4.93;0.93;;;;;;;30.69;19.93;100621.56;5057125;28;20049;-65
2022/08/13 12:33:28;;;;;;;4.50;0.80;;;;;;;30.69;20.35;100613.03;5055683;28;20211;-64